Ames, Texas
Current Conditions -  °F | °C
As of 1:35 PM on Tuesday 21 Oct 2014 (Local Time) from K6R3 Reporting Station
Clear Clear  
Wind Chill: 26°   Ceiling: Unl
Heat Index: 27°   Visibility: 10mi
Dew Point: 15°   Wind: 0mph
Humidity: 49%   Direction: NA
Pressure: 30.05"   Gusts: NA
Location:  30.0821°N, 94.7401°W
Report Text: K6R3 211835Z AUTO 00000KT 10SM CLR 27/15 A3005 RMK AO2 T02650151
Loading
Personal Weather Stations






























Interactive Weather Map
Tropical Storm Tracking
New forecast layout! Learn more

10-Day Weather Forecast

Advertisements
Track Severe Weather on mobile